Terminal Aerodrome Forecast
Issued by NWS

Home | Current Version | Previous Version | Text Only | Print | Product List | Glossary On
Versions: 1 2 3 4 5 6 7 8 9 10 11 12 13 14 15
797
FTUS42 TJSJ 211135
TAFJPS
TAF
TJPS 211135Z 2112/2212 16020G30KT 3SM SHRA VCTS BKN015CB OVC025
     FM212200 16010G20KT P6SM VCSH SCT015 BKN025
     FM220900 15010KT 5SM SHRA VCTS SCT015CB BKN025
      AMD NOT SKED=

USA.gov is the U.S. government's official web portal to all federal, state and local government web resources and services.